Monday, October 21, 2019, 9:12 PM EDT
Back to Local

KEWN, New Bern, Craven County Regional Airport

Location: New Bern, NC, United States Lat: 35.068
Local Time: 9:12 PM EDT ( 1:12 GMT) Lon: -77.047
Time Zone: US/Eastern Elev: 16 ft

Show me the last for .
Show Decoded

2019-10-21 20:54 METAR KEWN 220054Z 09004KT 10SM OVC013 17/15 A3009 RMK AO2 SLP190 T01720150 =
2019-10-21 19:54 METAR KEWN 212354Z 08004KT 10SM OVC014 17/15 A3009 RMK AO2 SLP189 T01720150
                 10183 20172 53005 =
2019-10-21 19:45 METAR KEWN 212345Z 10004KT 10SM OVC014 17/15 A3009 RMK AO2 T01720150 =
2019-10-21 18:54 METAR KEWN 212254Z 08004KT 10SM OVC015 17/15 A3008 RMK AO2 SLP184 T01720150 =
2019-10-21 17:54 METAR KEWN 212154Z VRB03KT 10SM OVC016 18/15 A3008 RMK AO2 SLP184 T01780150 =
2019-10-21 16:54 METAR KEWN 212054Z 03003KT 10SM OVC016 18/15 A3007 RMK AO2 SLP184 T01830150
                 56001 =
2019-10-21 15:54 METAR KEWN 211954Z 00000KT 10SM OVC016 18/15 A3007 RMK AO2 SLP184 T01830150 =
2019-10-21 14:54 METAR KEWN 211854Z 02004KT 10SM OVC015 18/15 A3006 RMK AO2 SLP180 T01830150 =
2019-10-21 13:54 METAR KEWN 211754Z 36004KT 10SM OVC015 18/15 A3008 RMK AO2 SLP185 T01830150
                 10183 20150 58004 =
2019-10-21 13:20 METAR KEWN 211720Z 04006KT 10SM OVC015 18/15 A3009 RMK AO2 T01830150 =
2019-10-21 12:54 METAR KEWN 211654Z 01005KT 10SM OVC013 17/15 A3010 RMK AO2 SLP191 T01720150 =
2019-10-21 11:54 METAR KEWN 211554Z 01004KT 10SM OVC011 17/14 A3009 RMK AO2 SLP190 T01670144 =
2019-10-21 10:54 METAR KEWN 211454Z 02006KT 10SM OVC010 16/14 A3009 RMK AO2 SLP189 T01610144
                 51019 =
2019-10-21 10:40 METAR KEWN 211440Z 34007KT 10SM OVC010 16/14 A3009 RMK AO2 T01610144 =
2019-10-21 09:54 METAR KEWN 211354Z 36007KT 10SM OVC009 16/14 A3008 RMK AO2 SLP187 T01560144 =
2019-10-21 08:54 METAR KEWN 211254Z 36008KT 10SM OVC009 16/14 A3006 RMK AO2 SLP180 T01560144 =
2019-10-21 07:54 METAR KEWN 211154Z 36006KT 10SM OVC009 15/14 A3004 RMK AO2 SLP171 70008
                 T01500139 10156 20150 51020 =
2019-10-21 07:28 METAR KEWN 211128Z 35009KT 10SM OVC009 15/14 A3003 RMK AO2 T01500139 =
2019-10-21 07:12 METAR KEWN 211112Z 36008KT 10SM OVC010 15/14 A3002 RMK AO2 T01500139 =
2019-10-21 06:54 METAR KEWN 211054Z 35010KT 10SM OVC009 15/14 A3002 RMK AO2 SLP164 T01500139 =
2019-10-21 06:27 METAR KEWN 211027Z 01007KT 10SM OVC009 15/14 A3001 RMK AO2 T01500139 =
2019-10-21 05:54 METAR KEWN 210954Z 35008KT 10SM OVC010 15/14 A3000 RMK AO2 SLP160 T01500139 =
2019-10-21 05:17 METAR KEWN 210917Z AUTO 35009KT 10SM OVC010 16/14 A2998 RMK AO2 T01560139 =
2019-10-21 05:07 METAR KEWN 210907Z AUTO 34010KT 10SM OVC009 16/14 A2999 RMK AO2 CIG 008V013
                 T01560139 =
2019-10-21 04:54 METAR KEWN 210854Z AUTO 35007KT 10SM OVC010 16/14 A2998 RMK AO2 CIG 008V013
                 SLP151 T01560144 53009 =
2019-10-21 03:54 METAR KEWN 210754Z AUTO 33007KT 10SM OVC014 16/14 A2996 RMK AO2 SLP145 T01560144
                 =
2019-10-21 02:54 METAR KEWN 210654Z AUTO 33007KT 10SM OVC014 16/15 A2995 RMK AO2 SLP143 T01560150
                 =
2019-10-21 01:54 METAR KEWN 210554Z AUTO 34007KT 10SM BKN010 OVC016 16/14 A2995 RMK AO2 SLP142
                 T01560144 10161 20156 52018 =
2019-10-21 00:54 METAR KEWN 210454Z AUTO 34012G18KT 10SM OVC012 16/14 A2993 RMK AO2 SLP136
                 T01560144 402720156 =
2019-10-20 23:54 METAR KEWN 210354Z AUTO 32008KT 10SM OVC010 16/15 A2991 RMK AO2 CIG 006V012
                 SLP129 T01560150 =
2019-10-20 22:54 METAR KEWN 210254Z AUTO 33012KT 10SM BKN011 OVC016 16/15 A2990 RMK AO2 SLP124
                 T01610150 51021 =
2019-10-20 21:54 METAR KEWN 210154Z AUTO 31009G17KT 10SM OVC010 16/15 A2987 RMK AO2 CIG 008V013
                 SLP114 T01610150 =
2019-10-20 21:26 METAR KEWN 210126Z 31009KT 10SM OVC009 16/16 A2985 RMK AO2 CIG 008V014 T01610156
                 =
2019-10-20 21:14 METAR KEWN 210114Z 32009KT 10SM OVC011 16/16 A2984 RMK AO2 CIG 008V012 T01610156
                 =

Support USWX by starting your Amazon purchase here.